createdAt,value
2022-09-21T00:01:32.289Z,76.27
2022-09-21T00:04:05.168Z,76.21
2022-09-21T00:06:38.089Z,75.91
2022-09-21T00:09:10.438Z,76.08
2022-09-21T00:11:42.884Z,76.23
2022-09-21T00:14:17.327Z,76.38
2022-09-21T00:16:49.852Z,76.16
2022-09-21T00:19:22.963Z,75.93
2022-09-21T00:21:56.208Z,76.33
2022-09-21T00:24:28.875Z,76.63
2022-09-21T00:27:01.414Z,76.60
2022-09-21T00:29:35.620Z,76.77
2022-09-21T00:32:08.125Z,76.54
2022-09-21T00:34:40.667Z,76.69
2022-09-21T00:37:13.258Z,76.83
2022-09-21T00:39:46.161Z,76.51
2022-09-21T00:42:20.222Z,76.59
2022-09-21T00:44:54.577Z,76.73
2022-09-21T00:47:30.852Z,76.56
2022-09-21T00:50:09.392Z,76.67
2022-09-21T00:52:45.302Z,76.46
2022-09-21T00:55:23.073Z,76.50
2022-09-21T00:57:59.751Z,76.33
2022-09-21T01:00:33.584Z,76.32
2022-09-21T01:03:08.735Z,76.21
2022-09-21T01:05:41.443Z,76.38
2022-09-21T01:08:15.526Z,76.34
2022-09-21T01:11:03.686Z,76.52
2022-09-21T01:13:49.862Z,76.19
2022-09-21T01:16:34.110Z,76.68
2022-09-21T01:19:19.086Z,76.56
2022-09-21T01:22:00.892Z,76.80
2022-09-21T01:24:48.520Z,76.43
2022-09-21T01:27:49.304Z,76.94
2022-09-21T01:30:24.425Z,76.69
2022-09-21T01:33:03.372Z,76.78
2022-09-21T01:35:39.268Z,76.72
2022-09-21T01:38:17.863Z,76.73
2022-09-21T01:40:55.502Z,76.84
2022-09-21T01:43:32.627Z,76.64
2022-09-21T01:46:13.653Z,76.97
2022-09-21T01:48:52.441Z,76.43
2022-09-21T01:51:28.252Z,76.87
2022-09-21T01:54:05.584Z,76.74
2022-09-21T01:56:41.893Z,76.76
2022-09-21T01:59:19.979Z,76.77
2022-09-21T02:01:57.748Z,76.81
2022-09-21T02:04:30.729Z,76.70
2022-09-21T02:07:03.217Z,76.80
2022-09-21T02:09:37.487Z,76.79
2022-09-21T02:12:10.719Z,76.91
2022-09-21T02:14:43.460Z,76.97
2022-09-21T02:17:29.541Z,77.05
2022-09-21T02:20:13.332Z,77.07
2022-09-21T02:23:03.569Z,76.76
2022-09-21T02:25:47.565Z,76.67
2022-09-21T02:28:31.714Z,76.95
2022-09-21T02:31:14.016Z,76.60
2022-09-21T02:33:57.682Z,77.17
2022-09-21T02:36:36.488Z,77.27
2022-09-21T02:39:15.514Z,77.54
2022-09-21T02:41:57.829Z,77.36
2022-09-21T02:44:36.733Z,77.50
2022-09-21T02:47:13.979Z,77.54
2022-09-21T02:49:52.805Z,77.49
2022-09-21T02:52:26.826Z,77.94
2022-09-21T02:55:00.988Z,78.06
2022-09-21T02:57:33.506Z,77.79
2022-09-21T03:00:07.241Z,77.20
2022-09-21T03:02:41.397Z,77.45
2022-09-21T03:05:15.620Z,77.62
2022-09-21T03:07:48.235Z,77.57
2022-09-21T03:10:20.920Z,77.75
2022-09-21T03:12:57.697Z,77.53
2022-09-21T03:15:30.148Z,77.45
2022-09-21T03:18:05.249Z,77.41
2022-09-21T03:20:40.556Z,77.56
2022-09-21T03:23:13.556Z,77.75
2022-09-21T03:25:46.320Z,77.70
2022-09-21T03:28:20.129Z,77.57
2022-09-21T03:30:52.967Z,77.69
2022-09-21T03:33:25.773Z,77.67
2022-09-21T03:36:00.057Z,77.75
2022-09-21T03:38:32.826Z,78.09
2022-09-21T03:41:05.500Z,77.71
2022-09-21T03:43:38.001Z,78.01
2022-09-21T03:46:12.522Z,78.23
2022-09-21T03:48:48.632Z,77.72
2022-09-21T03:51:22.493Z,77.94
2022-09-21T03:53:55.958Z,77.64
2022-09-21T03:56:28.853Z,77.91
2022-09-21T03:59:01.370Z,77.92
2022-09-21T04:01:33.776Z,77.91
2022-09-21T04:04:06.443Z,77.93
2022-09-21T04:06:41.355Z,77.83
2022-09-21T04:09:13.925Z,77.93
2022-09-21T04:11:46.402Z,77.57
2022-09-21T04:14:19.002Z,77.96
2022-09-21T04:16:52.215Z,78.03
2022-09-21T04:19:24.959Z,78.38
2022-09-21T04:21:58.787Z,78.27
2022-09-21T04:24:31.540Z,78.32
2022-09-21T04:27:04.445Z,78.16
2022-09-21T04:29:37.579Z,78.30
2022-09-21T04:32:11.575Z,78.30
2022-09-21T04:34:44.119Z,78.08
2022-09-21T04:37:17.963Z,78.02
2022-09-21T04:39:50.777Z,78.26
2022-09-21T04:42:23.556Z,78.34
2022-09-21T04:44:56.409Z,78.49
2022-09-21T04:47:30.312Z,78.22
2022-09-21T04:50:02.824Z,78.26
2022-09-21T04:52:37.675Z,78.15
2022-09-21T04:55:10.381Z,78.13
2022-09-21T04:57:44.366Z,78.26
2022-09-21T05:00:17.520Z,78.71
2022-09-21T05:02:51.828Z,78.29
2022-09-21T05:05:24.925Z,77.96
2022-09-21T05:07:58.948Z,78.33
2022-09-21T05:10:31.523Z,78.04
2022-09-21T05:13:03.973Z,78.32
2022-09-21T05:15:38.099Z,78.63
2022-09-21T05:18:10.756Z,78.33
2022-09-21T05:20:43.200Z,78.65
2022-09-21T05:23:17.028Z,78.52
2022-09-21T05:25:50.094Z,78.49
2022-09-21T05:28:26.770Z,78.78
2022-09-21T05:31:17.554Z,78.54
2022-09-21T05:33:54.880Z,78.24
2022-09-21T05:36:39.540Z,78.39
2022-09-21T05:39:14.090Z,78.57
2022-09-21T05:41:47.069Z,78.52
2022-09-21T05:44:21.711Z,78.71
2022-09-21T05:47:01.957Z,78.57
2022-09-21T05:49:49.286Z,78.44
2022-09-21T05:52:26.606Z,78.66
2022-09-21T05:55:07.509Z,78.68
2022-09-21T05:57:52.146Z,78.83
2022-09-21T06:00:25.200Z,78.95
2022-09-21T06:03:17.808Z,78.95
2022-09-21T06:05:50.329Z,78.73
2022-09-21T06:08:22.898Z,79.41
2022-09-21T06:10:57.465Z,78.70
2022-09-21T06:13:29.972Z,78.86
2022-09-21T06:16:03.133Z,78.87
2022-09-21T06:18:38.937Z,79.33
2022-09-21T06:21:11.476Z,79.51
2022-09-21T06:23:43.960Z,79.36
2022-09-21T06:26:18.128Z,79.01
2022-09-21T06:28:50.652Z,79.24
2022-09-21T06:31:23.196Z,79.50
2022-09-21T06:33:56.150Z,79.36
2022-09-21T06:36:28.653Z,79.25
2022-09-21T06:39:01.204Z,79.45
2022-09-21T06:41:35.083Z,79.73
2022-09-21T06:44:07.686Z,79.72
2022-09-21T06:46:40.169Z,79.73
2022-09-21T06:49:12.752Z,79.46
2022-09-21T06:51:45.201Z,79.33
2022-09-21T06:54:18.612Z,79.85
2022-09-21T06:56:52.644Z,80.01
2022-09-21T06:59:26.817Z,79.93
2022-09-21T07:01:59.989Z,80.01
2022-09-21T07:04:32.625Z,79.93
2022-09-21T07:07:05.809Z,79.57
2022-09-21T07:12:34.698Z,79.62
2022-09-21T07:15:08.702Z,79.91
2022-09-21T07:17:41.253Z,79.65
2022-09-21T07:20:14.110Z,79.81
2022-09-21T07:22:46.669Z,79.64
2022-09-21T07:25:19.299Z,79.64
2022-09-21T07:27:53.804Z,79.63
2022-09-21T07:30:27.966Z,79.96
2022-09-21T07:33:03.235Z,79.40
2022-09-21T07:35:36.065Z,79.55
2022-09-21T07:38:08.960Z,79.51
2022-09-21T07:40:41.550Z,79.60
2022-09-21T07:43:15.541Z,79.75
2022-09-21T07:45:54.289Z,79.75
2022-09-21T07:48:26.764Z,79.56
2022-09-21T07:51:04.417Z,79.65
2022-09-21T07:53:38.462Z,79.51
2022-09-21T07:56:28.261Z,79.57
2022-09-21T07:59:30.293Z,79.73
2022-09-21T08:02:10.140Z,79.92
2022-09-21T08:04:51.091Z,79.56
2022-09-21T08:07:27.765Z,79.95
2022-09-21T08:10:05.684Z,79.23
2022-09-21T08:12:38.413Z,79.89
2022-09-21T08:15:36.948Z,79.50
2022-09-21T08:18:07.953Z,79.88
2022-09-21T08:20:41.006Z,79.71
2022-09-21T08:23:15.878Z,79.83
2022-09-21T08:25:48.528Z,79.84
2022-09-21T08:28:21.000Z,79.68
2022-09-21T08:30:54.908Z,79.85
2022-09-21T08:33:31.302Z,80.56
2022-09-21T08:36:04.440Z,80.12
2022-09-21T08:38:38.856Z,80.44
2022-09-21T08:41:17.847Z,80.28
2022-09-21T08:43:53.951Z,79.87
2022-09-21T08:46:32.033Z,79.71
2022-09-21T08:49:10.444Z,79.36
2022-09-21T08:51:48.549Z,80.10
2022-09-21T08:54:28.796Z,79.91
2022-09-21T08:57:05.363Z,79.91
2022-09-21T08:59:43.277Z,79.88
2022-09-21T09:02:41.279Z,79.60
2022-09-21T09:05:29.218Z,79.30
2022-09-21T09:08:19.626Z,79.38
2022-09-21T09:11:02.150Z,79.89
2022-09-21T09:13:57.126Z,79.89
2022-09-21T09:16:42.376Z,79.42
2022-09-21T09:19:22.475Z,79.82
2022-09-21T09:21:56.456Z,79.16
2022-09-21T09:24:35.995Z,79.54
2022-09-21T09:27:17.076Z,80.01
2022-09-21T09:30:02.852Z,79.72
2022-09-21T09:32:44.131Z,79.63
2022-09-21T09:35:25.824Z,79.48
2022-09-21T09:38:05.867Z,79.47
2022-09-21T09:40:55.610Z,79.54
2022-09-21T09:43:41.762Z,79.59
2022-09-21T09:46:24.269Z,79.76
2022-09-21T09:49:29.869Z,79.04
2022-09-21T09:52:11.314Z,79.10
2022-09-21T09:54:44.469Z,79.41
2022-09-21T09:57:26.921Z,79.90
2022-09-21T10:00:03.834Z,79.80
2022-09-21T10:02:50.166Z,79.22
2022-09-21T10:05:25.053Z,78.50
2022-09-21T10:07:59.054Z,79.25
2022-09-21T10:10:34.705Z,79.25
2022-09-21T10:13:13.272Z,78.95
2022-09-21T10:15:50.771Z,79.25
2022-09-21T10:18:26.287Z,78.93
2022-09-21T10:21:01.689Z,79.61
2022-09-21T10:23:37.927Z,78.67
2022-09-21T10:26:13.849Z,79.00
2022-09-21T10:28:57.289Z,79.29
2022-09-21T10:31:31.218Z,79.58
2022-09-21T10:34:13.317Z,78.46
2022-09-21T10:36:51.896Z,79.06
2022-09-21T10:39:27.792Z,79.69
2022-09-21T10:42:05.661Z,79.29
2022-09-21T10:44:41.221Z,79.03
2022-09-21T10:47:21.645Z,78.87
2022-09-21T10:49:56.326Z,78.71
2022-09-21T10:52:34.580Z,78.57
2022-09-21T10:55:18.544Z,79.19
2022-09-21T10:57:54.268Z,79.17
2022-09-21T11:00:37.910Z,78.89
2022-09-21T11:03:40.521Z,78.63
2022-09-21T11:06:18.451Z,79.27
2022-09-21T11:08:55.499Z,79.04
2022-09-21T11:11:42.848Z,79.62
2022-09-21T11:14:28.145Z,79.58
2022-09-21T11:17:08.447Z,79.21
2022-09-21T11:19:48.835Z,79.16
2022-09-21T11:22:33.771Z,79.00
2022-09-21T11:25:23.606Z,79.34
2022-09-21T11:28:04.445Z,79.05
2022-09-21T11:30:49.416Z,78.90
2022-09-21T11:33:39.128Z,79.04
2022-09-21T11:36:18.016Z,79.46
2022-09-21T11:39:00.514Z,79.06
2022-09-21T11:41:56.341Z,79.03
2022-09-21T11:44:43.232Z,79.48
2022-09-21T11:47:31.042Z,79.78
2022-09-21T11:50:31.511Z,79.32
2022-09-21T11:53:37.245Z,79.28
2022-09-21T11:56:31.564Z,79.14
2022-09-21T11:59:21.356Z,79.45
2022-09-21T12:02:22.750Z,78.34
2022-09-21T12:05:01.443Z,79.49
2022-09-21T12:07:52.483Z,79.09
2022-09-21T12:10:39.872Z,79.61
2022-09-21T12:13:26.518Z,79.96
2022-09-21T12:16:06.185Z,79.48
2022-09-21T12:18:49.092Z,79.06
2022-09-21T12:21:25.990Z,79.43
2022-09-21T12:24:03.597Z,79.08
2022-09-21T12:26:41.799Z,79.73
2022-09-21T12:29:19.980Z,79.81
2022-09-21T12:31:59.269Z,79.52
2022-09-21T12:34:44.080Z,80.00
2022-09-21T12:37:25.213Z,79.61
2022-09-21T12:40:03.048Z,79.71
2022-09-21T12:42:42.136Z,80.19
2022-09-21T12:45:20.022Z,79.68
2022-09-21T12:47:58.401Z,79.38
2022-09-21T12:50:39.809Z,79.07
2022-09-21T12:53:19.155Z,79.85
2022-09-21T12:56:01.414Z,79.81
2022-09-21T12:58:53.773Z,79.54
2022-09-21T13:01:33.433Z,80.09
2022-09-21T13:04:24.678Z,79.63
2022-09-21T13:07:21.248Z,79.69
2022-09-21T13:09:56.455Z,79.95
2022-09-21T13:12:38.005Z,80.56
2022-09-21T13:15:18.003Z,80.06
2022-09-21T13:18:00.134Z,80.32
2022-09-21T13:20:38.410Z,80.64
2022-09-21T13:23:17.581Z,80.15
2022-09-21T13:26:01.398Z,80.42
2022-09-21T13:29:03.272Z,79.97
2022-09-21T13:31:58.046Z,80.84
2022-09-21T13:34:36.738Z,80.47
2022-09-21T13:37:33.408Z,79.89
2022-09-21T13:40:49.103Z,79.34
2022-09-21T13:44:04.388Z,80.00
2022-09-21T13:46:55.418Z,80.57
2022-09-21T13:49:39.898Z,79.83
2022-09-21T13:52:27.929Z,80.01
2022-09-21T13:55:02.090Z,80.24
2022-09-21T13:57:41.926Z,80.11
2022-09-21T14:00:36.160Z,79.20
2022-09-21T14:03:22.065Z,79.89
2022-09-21T14:06:01.200Z,80.31
2022-09-21T14:08:37.708Z,80.72
2022-09-21T14:11:17.037Z,80.23
2022-09-21T14:14:05.080Z,80.89
2022-09-21T14:16:56.017Z,80.76
2022-09-21T14:20:08.256Z,80.87
2022-09-21T14:22:44.394Z,81.34
2022-09-21T14:25:30.829Z,81.26
2022-09-21T14:28:13.413Z,81.08
2022-09-21T14:30:56.648Z,81.00
2022-09-21T14:33:34.350Z,80.65
2022-09-21T14:36:10.052Z,80.79
2022-09-21T14:38:52.985Z,81.01
2022-09-21T14:41:33.081Z,80.50
2022-09-21T14:44:05.968Z,79.93
2022-09-21T14:47:07.916Z,80.50
2022-09-21T14:49:57.889Z,80.32
2022-09-21T14:52:40.843Z,80.86
2022-09-21T14:55:19.123Z,80.72
2022-09-21T14:58:11.890Z,81.23
2022-09-21T15:00:47.628Z,80.91
2022-09-21T15:03:49.077Z,80.47
2022-09-21T15:06:48.160Z,81.21
2022-09-21T15:09:58.541Z,80.98
2022-09-21T15:12:41.039Z,80.77
2022-09-21T15:15:30.092Z,80.57
2022-09-21T15:18:15.487Z,81.22
2022-09-21T15:21:01.389Z,81.15
2022-09-21T15:23:39.448Z,81.18
2022-09-21T15:26:19.281Z,81.06
2022-09-21T15:29:09.181Z,81.14
2022-09-21T15:31:42.789Z,81.04
2022-09-21T15:34:16.225Z,81.25
2022-09-21T15:36:52.907Z,80.74
2022-09-21T15:39:27.453Z,80.67
2022-09-21T15:42:20.142Z,80.70
2022-09-21T15:45:10.991Z,81.41
2022-09-21T15:47:45.289Z,81.11
2022-09-21T15:50:20.396Z,81.09
2022-09-21T15:52:59.656Z,81.27
2022-09-21T15:55:34.041Z,81.33
2022-09-21T15:58:17.973Z,81.60
2022-09-21T16:00:55.979Z,81.21
2022-09-21T16:03:28.985Z,81.57
2022-09-21T16:06:18.752Z,81.23
2022-09-21T16:08:52.891Z,80.88
2022-09-21T16:11:36.099Z,81.17
2022-09-21T16:14:31.015Z,81.20
2022-09-21T16:17:23.255Z,80.88
2022-09-21T16:20:19.789Z,80.89
2022-09-21T16:22:55.078Z,81.24
2022-09-21T16:25:37.721Z,80.93
2022-09-21T16:28:43.534Z,80.37
2022-09-21T16:31:30.094Z,81.46
2022-09-21T16:34:20.506Z,81.51
2022-09-21T16:36:54.851Z,81.56
2022-09-21T16:39:27.572Z,81.20
2022-09-21T16:42:05.579Z,81.77
2022-09-21T16:44:44.970Z,81.25
2022-09-21T16:47:25.484Z,81.44
2022-09-21T16:50:02.746Z,81.76
2022-09-21T16:52:36.825Z,81.22
2022-09-21T16:55:10.861Z,81.29
2022-09-21T16:57:46.148Z,81.07
2022-09-21T17:00:22.516Z,81.28
2022-09-21T17:02:55.346Z,81.57
2022-09-21T17:05:28.110Z,81.38
2022-09-21T17:08:00.872Z,81.18
2022-09-21T17:10:37.719Z,81.14
2022-09-21T17:13:14.733Z,81.27
2022-09-21T17:15:49.288Z,81.41
2022-09-21T17:18:22.009Z,81.37
2022-09-21T17:20:54.768Z,81.45
2022-09-21T17:23:29.393Z,81.22
2022-09-21T17:26:02.057Z,81.50
2022-09-21T17:28:36.191Z,81.70
2022-09-21T17:31:11.723Z,81.16
2022-09-21T17:33:47.877Z,81.40
2022-09-21T17:36:21.413Z,81.92
2022-09-21T17:38:54.222Z,81.67
2022-09-21T17:41:35.031Z,81.61
2022-09-21T17:44:15.936Z,81.31
2022-09-21T17:46:55.986Z,81.63
2022-09-21T17:49:29.194Z,81.78
2022-09-21T17:52:21.041Z,81.73
2022-09-21T17:54:54.483Z,81.50
2022-09-21T17:57:40.650Z,81.90
2022-09-21T18:00:20.658Z,81.78
2022-09-21T18:02:54.898Z,81.69
2022-09-21T18:05:29.716Z,81.55
2022-09-21T18:08:02.942Z,81.58
2022-09-21T18:10:37.404Z,81.80
2022-09-21T18:13:24.265Z,81.76
2022-09-21T18:16:21.742Z,81.93
2022-09-21T18:19:33.245Z,81.61
2022-09-21T18:22:15.336Z,81.62
2022-09-21T18:24:48.898Z,81.36
2022-09-21T18:27:23.750Z,81.50
2022-09-21T18:29:57.146Z,81.37
2022-09-21T18:32:49.637Z,81.08
2022-09-21T18:35:31.661Z,81.89
2022-09-21T18:38:16.370Z,81.33
2022-09-21T18:41:02.617Z,80.86
2022-09-21T18:43:46.630Z,81.12
2022-09-21T18:46:29.107Z,81.59
2022-09-21T18:49:10.236Z,81.39
2022-09-21T18:51:47.583Z,80.99
2022-09-21T18:54:22.107Z,80.73
2022-09-21T18:56:56.297Z,81.41
2022-09-21T18:59:31.910Z,81.56
2022-09-21T19:02:12.884Z,81.22
2022-09-21T19:04:49.527Z,81.52
2022-09-21T19:07:30.801Z,81.62
2022-09-21T19:10:11.503Z,81.11
2022-09-21T19:12:59.512Z,80.97
2022-09-21T19:16:01.363Z,80.96
2022-09-21T19:18:44.416Z,81.20
2022-09-21T19:21:32.794Z,80.43
2022-09-21T19:24:14.578Z,81.29
2022-09-21T19:26:52.373Z,80.78
2022-09-21T19:29:42.146Z,80.65
2022-09-21T19:32:17.418Z,80.24
2022-09-21T19:34:51.853Z,80.86
2022-09-21T19:37:26.215Z,80.96
2022-09-21T19:39:59.442Z,80.74
2022-09-21T19:42:40.000Z,80.86
2022-09-21T19:45:23.058Z,81.15
2022-09-21T19:48:03.447Z,80.85
2022-09-21T19:50:41.013Z,80.31
2022-09-21T19:53:34.299Z,81.25
2022-09-21T19:56:32.857Z,81.16
2022-09-21T19:59:24.421Z,81.34
2022-09-21T20:02:01.497Z,81.25
2022-09-21T20:04:39.493Z,81.29
2022-09-21T20:07:19.980Z,81.09
2022-09-21T20:10:08.443Z,80.90
2022-09-21T20:12:50.095Z,80.62
2022-09-21T20:15:28.837Z,81.26
2022-09-21T20:18:10.625Z,81.17
2022-09-21T20:20:43.463Z,81.24
2022-09-21T20:23:16.557Z,81.40
2022-09-21T20:25:55.945Z,81.89
2022-09-21T20:28:29.040Z,80.86
2022-09-21T20:31:01.598Z,80.96
2022-09-21T20:33:34.187Z,81.57
2022-09-21T20:36:09.113Z,81.40
2022-09-21T20:38:41.573Z,81.50
2022-09-21T20:41:16.991Z,80.90
2022-09-21T20:43:49.699Z,80.88
2022-09-21T20:46:22.287Z,81.01
2022-09-21T20:49:02.448Z,80.73
2022-09-21T20:51:36.123Z,81.00
2022-09-21T20:54:08.868Z,80.94
2022-09-21T20:56:42.727Z,80.81
2022-09-21T20:59:15.489Z,80.89
2022-09-21T21:01:47.901Z,80.84
2022-09-21T21:04:22.044Z,80.77
2022-09-21T21:06:55.316Z,80.98
2022-09-21T21:09:28.638Z,81.32
2022-09-21T21:12:03.521Z,80.76
2022-09-21T21:14:36.117Z,80.91
2022-09-21T21:17:08.840Z,80.49
2022-09-21T21:19:41.773Z,80.89
2022-09-21T21:22:14.301Z,81.08
2022-09-21T21:24:47.386Z,80.62
2022-09-21T21:27:22.840Z,80.93
2022-09-21T21:29:55.777Z,80.50
2022-09-21T21:32:28.865Z,80.67
2022-09-21T21:35:01.980Z,80.66
2022-09-21T21:37:36.144Z,80.43
2022-09-21T21:40:10.295Z,81.02
2022-09-21T21:42:44.044Z,80.93
2022-09-21T21:45:18.198Z,80.64
2022-09-21T21:47:50.900Z,80.85
2022-09-21T21:50:23.282Z,80.99
2022-09-21T21:52:58.489Z,80.89
2022-09-21T21:55:31.117Z,80.68
2022-09-21T21:58:04.921Z,81.05
2022-09-21T22:00:37.356Z,80.97
2022-09-21T22:03:09.630Z,81.22
2022-09-21T22:05:42.416Z,80.89
2022-09-21T22:08:14.813Z,81.31
2022-09-21T22:10:49.912Z,81.22
2022-09-21T22:13:23.918Z,80.91
2022-09-21T22:15:56.484Z,80.54
2022-09-21T22:18:29.182Z,80.87
2022-09-21T22:21:02.554Z,80.31
2022-09-21T22:23:37.609Z,80.52
2022-09-21T22:26:11.809Z,80.97
2022-09-21T22:28:49.377Z,80.94
2022-09-21T22:31:23.886Z,81.11
2022-09-21T22:33:57.258Z,80.61
2022-09-21T22:36:31.357Z,80.87
2022-09-21T22:39:04.573Z,80.57
2022-09-21T22:41:38.746Z,80.65
2022-09-21T22:44:12.502Z,80.33
2022-09-21T22:46:45.203Z,80.84
2022-09-21T22:49:17.798Z,80.60
2022-09-21T22:51:50.129Z,80.46
2022-09-21T22:54:22.513Z,80.32
2022-09-21T22:56:55.189Z,80.60
2022-09-21T22:59:28.957Z,80.91
2022-09-21T23:02:01.531Z,80.79
2022-09-21T23:04:34.074Z,80.37
2022-09-21T23:07:06.884Z,80.78
2022-09-21T23:09:39.274Z,80.40
2022-09-21T23:12:11.667Z,80.65
2022-09-21T23:14:45.460Z,80.31
2022-09-21T23:17:18.070Z,80.50
2022-09-21T23:19:50.565Z,80.68
2022-09-21T23:22:23.050Z,80.59
2022-09-21T23:24:55.359Z,80.95
2022-09-21T23:27:30.008Z,80.67
2022-09-21T23:30:04.397Z,80.73
2022-09-21T23:32:36.733Z,81.12
2022-09-21T23:35:09.219Z,80.98
2022-09-21T23:37:41.825Z,80.68
2022-09-21T23:40:14.672Z,80.91
2022-09-21T23:42:47.097Z,80.58
2022-09-21T23:45:20.775Z,80.85
2022-09-21T23:47:53.260Z,80.51
2022-09-21T23:50:25.793Z,80.60
2022-09-21T23:52:58.255Z,80.88
2022-09-21T23:55:31.139Z,80.66
2022-09-21T23:58:03.701Z,80.89
